createdAt,value
2018-08-28T00:01:51.440Z,93.40
2018-08-28T00:04:20.459Z,93.50
2018-08-28T00:06:49.491Z,93.60
2018-08-28T00:09:18.490Z,93.50
2018-08-28T00:11:47.873Z,93.50
2018-08-28T00:14:16.950Z,93.90
2018-08-28T00:16:46.024Z,93.70
2018-08-28T00:19:15.219Z,93.30
2018-08-28T00:21:44.274Z,93.40
2018-08-28T00:24:13.499Z,93.80
2018-08-28T00:26:42.508Z,94.30
2018-08-28T00:29:11.550Z,94.50
2018-08-28T00:31:40.609Z,94.70
2018-08-28T00:34:09.660Z,94.80
2018-08-28T00:36:38.894Z,94.80
2018-08-28T00:39:07.923Z,94.90
2018-08-28T00:41:37.013Z,94.90
2018-08-28T00:44:06.439Z,95.00
2018-08-28T00:46:35.542Z,95.10
2018-08-28T00:49:04.584Z,95.20
2018-08-28T00:51:33.792Z,95.30
2018-08-28T00:54:03.103Z,95.20
2018-08-28T00:56:32.139Z,95.10
2018-08-28T00:59:01.217Z,95.10
2018-08-28T01:01:30.261Z,95.10
2018-08-28T01:03:59.264Z,95.20
2018-08-28T01:06:28.303Z,95.10
2018-08-28T01:08:57.316Z,95.20
2018-08-28T01:11:26.329Z,95.20
2018-08-28T01:13:55.323Z,95.20
2018-08-28T01:16:24.374Z,95.30
2018-08-28T01:18:53.493Z,95.30
2018-08-28T01:21:22.506Z,95.40
2018-08-28T01:23:51.551Z,95.30
2018-08-28T01:26:20.801Z,95.50
2018-08-28T01:28:49.827Z,95.50
2018-08-28T01:31:18.866Z,95.60
2018-08-28T01:33:48.088Z,95.70
2018-08-28T01:36:17.100Z,95.70
2018-08-28T01:38:46.394Z,95.90
2018-08-28T01:41:15.460Z,96.10
2018-08-28T01:43:44.521Z,96.10
2018-08-28T01:46:13.617Z,96.30
2018-08-28T01:48:42.647Z,96.40
2018-08-28T01:51:11.720Z,96.40
2018-08-28T01:53:40.775Z,96.40
2018-08-28T01:56:09.810Z,96.30
2018-08-28T01:58:38.823Z,96.20
2018-08-28T02:01:07.843Z,96.20
2018-08-28T02:03:36.866Z,96.40
2018-08-28T02:06:06.256Z,96.40
2018-08-28T02:08:35.254Z,96.50
2018-08-28T02:11:04.321Z,96.70
2018-08-28T02:13:33.334Z,96.60
2018-08-28T02:16:02.664Z,96.60
2018-08-28T02:18:31.712Z,96.50
2018-08-28T02:21:00.767Z,96.50
2018-08-28T02:23:29.828Z,96.50
2018-08-28T02:25:58.877Z,96.50
2018-08-28T02:28:27.919Z,96.70
2018-08-28T02:30:56.921Z,96.90
2018-08-28T02:33:26.112Z,97.00
2018-08-28T02:35:55.269Z,97.10
2018-08-28T02:38:24.294Z,97.10
2018-08-28T02:40:53.355Z,96.90
2018-08-28T02:43:22.365Z,96.60
2018-08-28T02:45:51.410Z,96.50
2018-08-28T02:48:20.470Z,96.50
2018-08-28T02:50:49.759Z,96.40
2018-08-28T02:53:18.738Z,96.20
2018-08-28T02:55:47.713Z,96.00
2018-08-28T02:58:16.742Z,95.90
2018-08-28T03:00:45.737Z,96.10
2018-08-28T03:03:14.785Z,95.80
2018-08-28T03:05:43.839Z,95.80
2018-08-28T03:08:13.018Z,95.70
2018-08-28T03:10:42.271Z,95.70
2018-08-28T03:13:11.301Z,95.70
2018-08-28T03:15:40.340Z,95.90
2018-08-28T03:18:09.884Z,96.10
2018-08-28T03:20:39.271Z,96.20
2018-08-28T03:23:08.383Z,96.20
2018-08-28T03:25:37.446Z,96.20
2018-08-28T03:28:06.508Z,96.10
2018-08-28T03:30:35.647Z,96.40
2018-08-28T03:33:04.697Z,96.60
2018-08-28T03:35:33.724Z,96.90
2018-08-28T03:38:02.750Z,97.20
2018-08-28T03:40:31.923Z,97.30
2018-08-28T03:43:00.965Z,97.30
2018-08-28T03:45:30.017Z,97.30
2018-08-28T03:47:59.495Z,97.30
2018-08-28T03:50:28.616Z,97.30
2018-08-28T03:52:57.641Z,97.30
2018-08-28T03:55:26.627Z,97.30
2018-08-28T03:57:55.828Z,97.40
2018-08-28T04:00:24.886Z,97.60
2018-08-28T04:02:53.931Z,97.40
2018-08-28T04:05:22.983Z,97.60
2018-08-28T04:07:52.002Z,97.60
2018-08-28T04:10:21.041Z,97.70
2018-08-28T04:12:50.080Z,97.70
2018-08-28T04:15:19.080Z,97.70
2018-08-28T04:17:49.468Z,97.60
2018-08-28T04:20:20.054Z,97.40
2018-08-28T04:22:50.758Z,97.50
2018-08-28T04:25:19.799Z,97.50
2018-08-28T04:27:48.789Z,97.60
2018-08-28T04:30:17.809Z,97.50
2018-08-28T04:32:47.062Z,97.60
2018-08-28T04:35:16.104Z,97.60
2018-08-28T04:37:45.166Z,98.60
2018-08-28T04:40:14.214Z,98.30
2018-08-28T04:42:43.296Z,98.60
2018-08-28T04:45:12.315Z,98.60
2018-08-28T04:47:41.356Z,99.50
2018-08-28T04:50:10.400Z,99.80
2018-08-28T04:52:39.536Z,99.30
2018-08-28T04:55:08.907Z,99.90
2018-08-28T04:57:37.937Z,98.60
2018-08-28T05:00:07.651Z,98.30
2018-08-28T05:02:37.687Z,98.30
2018-08-28T05:05:08.768Z,98.00
2018-08-28T05:07:37.850Z,98.20
2018-08-28T05:10:07.272Z,98.20
2018-08-28T05:12:36.309Z,97.70
2018-08-28T05:15:05.537Z,97.50
2018-08-28T05:17:34.601Z,97.20
2018-08-28T05:20:03.979Z,97.00
2018-08-28T05:22:32.989Z,97.00
2018-08-28T05:25:02.183Z,96.90
2018-08-28T05:27:31.204Z,96.90
2018-08-28T05:30:00.304Z,96.80
2018-08-28T05:32:29.291Z,96.70
2018-08-28T05:34:58.558Z,96.70
2018-08-28T05:37:27.693Z,96.60
2018-08-28T05:39:56.718Z,96.30
2018-08-28T05:42:25.876Z,96.20
2018-08-28T05:44:54.887Z,96.40
2018-08-28T05:47:23.925Z,96.70
2018-08-28T05:49:53.126Z,96.90
2018-08-28T05:52:22.301Z,97.10
2018-08-28T05:54:51.520Z,97.10
2018-08-28T05:57:20.849Z,97.20
2018-08-28T05:59:50.072Z,97.40
2018-08-28T06:02:19.911Z,97.20
2018-08-28T06:04:48.942Z,96.90
2018-08-28T06:07:17.991Z,96.70
2018-08-28T06:09:46.988Z,96.50
2018-08-28T06:12:16.004Z,96.10
2018-08-28T06:14:45.085Z,95.90
2018-08-28T06:17:14.447Z,95.80
2018-08-28T06:19:43.732Z,95.30
2018-08-28T06:22:12.777Z,95.20
2018-08-28T06:24:41.818Z,95.40
2018-08-28T06:27:10.875Z,94.70
2018-08-28T06:29:41.402Z,94.50
2018-08-28T06:32:10.423Z,94.50
2018-08-28T06:34:39.414Z,94.70
2018-08-28T06:37:08.501Z,94.10
2018-08-28T06:39:37.526Z,93.80
2018-08-28T06:42:07.113Z,93.60
2018-08-28T06:44:36.618Z,93.70
2018-08-28T06:47:05.900Z,93.60
2018-08-28T06:49:35.007Z,93.70
2018-08-28T06:52:04.570Z,93.70
2018-08-28T06:54:33.602Z,93.70
2018-08-28T06:57:02.791Z,93.30
2018-08-28T06:59:31.994Z,93.30
2018-08-28T07:02:01.445Z,93.00
2018-08-28T07:04:30.621Z,92.80
2018-08-28T07:06:59.653Z,92.50
2018-08-28T07:09:28.881Z,92.40
2018-08-28T07:11:57.926Z,92.50
2018-08-28T07:14:27.087Z,92.40
2018-08-28T07:16:56.135Z,92.40
2018-08-28T07:19:25.182Z,92.30
2018-08-28T07:21:54.650Z,92.10
2018-08-28T07:24:23.686Z,92.10
2018-08-28T07:26:52.907Z,92.00
2018-08-28T07:29:22.266Z,91.90
2018-08-28T07:31:51.478Z,91.70
2018-08-28T07:34:20.676Z,91.60
2018-08-28T07:36:49.714Z,91.50
2018-08-28T07:39:18.945Z,91.50
2018-08-28T07:41:48.200Z,91.40
2018-08-28T07:44:17.490Z,91.40
2018-08-28T07:46:46.892Z,91.40
2018-08-28T07:49:15.971Z,91.40
2018-08-28T07:51:44.978Z,91.20
2018-08-28T07:54:14.590Z,90.80
2018-08-28T07:56:43.647Z,90.30
2018-08-28T07:59:12.744Z,90.00
2018-08-28T08:01:41.809Z,89.10
2018-08-28T08:04:10.868Z,89.40
2018-08-28T08:06:39.933Z,88.90
2018-08-28T08:09:10.556Z,89.70
2018-08-28T08:11:39.633Z,89.30
2018-08-28T08:14:08.649Z,89.50
2018-08-28T08:16:37.757Z,89.50
2018-08-28T08:19:07.127Z,88.40
2018-08-28T08:21:36.201Z,88.00
2018-08-28T08:24:05.390Z,87.70
2018-08-28T08:26:34.763Z,87.60
2018-08-28T08:29:04.185Z,87.30
2018-08-28T08:31:33.179Z,86.00
2018-08-28T08:34:02.738Z,85.00
2018-08-28T08:36:31.941Z,83.80
2018-08-28T08:39:00.957Z,83.40
2018-08-28T08:41:30.210Z,82.70
2018-08-28T08:43:59.367Z,82.10
2018-08-28T08:46:28.431Z,81.30
2018-08-28T08:48:57.534Z,80.80
2018-08-28T08:51:30.612Z,80.70
2018-08-28T08:53:59.670Z,80.30
2018-08-28T08:56:28.831Z,78.40
2018-08-28T08:58:57.881Z,78.90
2018-08-28T09:01:26.923Z,78.80
2018-08-28T09:03:56.016Z,78.50
2018-08-28T09:06:25.136Z,78.20
2018-08-28T09:08:54.196Z,78.80
2018-08-28T09:11:23.353Z,79.70
2018-08-28T09:13:52.431Z,79.20
2018-08-28T09:16:21.777Z,78.30
2018-08-28T09:18:50.874Z,77.70
2018-08-28T09:21:20.168Z,78.30
2018-08-28T09:23:49.397Z,78.00
2018-08-28T09:26:18.809Z,77.40
2018-08-28T09:28:47.834Z,77.40
2018-08-28T09:31:16.926Z,77.60
2018-08-28T09:33:46.098Z,76.40
2018-08-28T09:36:15.107Z,76.00
2018-08-28T09:38:44.169Z,76.30
2018-08-28T09:41:13.351Z,76.50
2018-08-28T09:43:42.438Z,76.10
2018-08-28T09:46:11.659Z,75.80
2018-08-28T09:48:40.951Z,75.00
2018-08-28T09:51:10.302Z,74.10
2018-08-28T09:53:39.461Z,73.60
2018-08-28T09:56:08.518Z,71.90
2018-08-28T09:58:38.091Z,71.00
2018-08-28T10:01:12.449Z,70.50
2018-08-28T10:03:41.440Z,71.60
2018-08-28T10:06:10.675Z,71.30
2018-08-28T10:08:39.696Z,70.10
2018-08-28T10:11:08.719Z,69.40
2018-08-28T10:13:38.288Z,68.60
2018-08-28T10:16:07.330Z,66.80
2018-08-28T10:18:36.615Z,65.00
2018-08-28T10:21:06.016Z,64.30
2018-08-28T10:23:35.205Z,64.20
2018-08-28T10:26:04.196Z,65.20
2018-08-28T10:28:33.203Z,65.00
2018-08-28T10:31:02.241Z,64.60
2018-08-28T10:33:31.312Z,66.00
2018-08-28T10:36:00.374Z,67.10
2018-08-28T10:38:29.751Z,67.10
2018-08-28T10:40:58.917Z,66.90
2018-08-28T10:43:27.988Z,66.10
2018-08-28T10:45:57.484Z,65.20
2018-08-28T10:48:26.845Z,65.00
2018-08-28T10:50:55.873Z,65.00
2018-08-28T10:53:25.595Z,63.60
2018-08-28T10:55:54.612Z,62.50
2018-08-28T10:58:23.625Z,63.00
2018-08-28T11:00:52.827Z,61.50
2018-08-28T11:03:22.103Z,60.80
2018-08-28T11:05:51.179Z,62.60
2018-08-28T11:08:20.484Z,61.70
2018-08-28T11:10:49.507Z,59.90
2018-08-28T11:13:18.520Z,56.10
2018-08-28T11:15:47.522Z,50.20
2018-08-28T11:18:17.087Z,44.50
2018-08-28T11:20:46.779Z,41.50
2018-08-28T11:23:16.361Z,38.50
2018-08-28T11:25:45.986Z,38.50
2018-08-28T11:28:15.623Z,39.40
2018-08-28T11:30:45.212Z,39.10
2018-08-28T11:33:15.294Z,37.70
2018-08-28T11:35:44.938Z,36.50
2018-08-28T11:38:15.667Z,34.80
2018-08-28T11:40:45.387Z,34.10
2018-08-28T11:43:15.282Z,34.00
2018-08-28T11:45:44.943Z,34.20
2018-08-28T11:48:14.570Z,34.60
2018-08-28T11:50:44.163Z,33.40
2018-08-28T11:53:13.717Z,34.10
2018-08-28T11:55:43.661Z,34.90
2018-08-28T11:58:13.515Z,35.90
2018-08-28T12:00:43.104Z,37.30
2018-08-28T12:03:12.677Z,39.60
2018-08-28T12:05:42.244Z,40.60
2018-08-28T12:08:11.865Z,42.00
2018-08-28T12:10:41.419Z,42.40
2018-08-28T12:13:11.175Z,41.90
2018-08-28T12:15:40.844Z,41.70
2018-08-28T12:18:10.789Z,42.00
2018-08-28T12:20:40.333Z,42.20
2018-08-28T12:23:09.925Z,40.60
2018-08-28T12:25:39.534Z,40.00
2018-08-28T12:28:09.302Z,39.60
2018-08-28T12:30:38.869Z,37.60
2018-08-28T12:33:08.869Z,36.90
2018-08-28T12:35:38.519Z,36.30
2018-08-28T12:38:08.136Z,35.20
2018-08-28T12:40:37.686Z,33.90
2018-08-28T12:43:07.762Z,32.30
2018-08-28T12:45:37.319Z,30.30
2018-08-28T12:48:06.910Z,32.20
2018-08-28T12:50:36.504Z,32.50
2018-08-28T12:53:06.479Z,33.30
2018-08-28T12:55:36.089Z,33.30
2018-08-28T12:58:06.436Z,31.80
2018-08-28T13:00:36.152Z,31.60
2018-08-28T13:03:05.855Z,30.50
2018-08-28T13:05:35.457Z,30.00
2018-08-28T13:08:05.031Z,29.30
2018-08-28T13:10:34.432Z,29.90
2018-08-28T13:13:04.191Z,30.50
2018-08-28T13:15:33.553Z,30.60
2018-08-28T13:18:03.199Z,30.40
2018-08-28T13:20:34.600Z,29.50
2018-08-28T13:23:04.250Z,29.40
2018-08-28T13:25:33.694Z,30.00
2018-08-28T13:28:03.118Z,30.80
2018-08-28T13:30:32.700Z,30.30
2018-08-28T13:33:02.006Z,29.60
2018-08-28T13:35:31.303Z,29.90
2018-08-28T13:38:00.911Z,29.50
2018-08-28T13:40:30.657Z,30.00
2018-08-28T13:43:00.000Z,29.50
2018-08-28T13:45:29.509Z,29.40
2018-08-28T13:47:59.105Z,29.20
2018-08-28T13:50:28.405Z,28.70
2018-08-28T13:52:57.736Z,28.10
2018-08-28T13:55:27.060Z,27.90
2018-08-28T13:57:56.297Z,28.00
2018-08-28T14:00:25.774Z,27.30
2018-08-28T14:02:55.093Z,27.20
2018-08-28T14:05:24.350Z,26.70
2018-08-28T14:07:53.635Z,27.20
2018-08-28T14:10:23.074Z,26.80
2018-08-28T14:12:52.475Z,27.30
2018-08-28T14:15:21.750Z,27.90
2018-08-28T14:17:51.223Z,28.60
2018-08-28T14:20:20.502Z,28.20
2018-08-28T14:22:50.027Z,27.70
2018-08-28T14:25:19.390Z,27.60
2018-08-28T14:27:49.362Z,27.70
2018-08-28T14:30:18.756Z,28.20
2018-08-28T14:32:48.105Z,27.10
2018-08-28T14:35:17.511Z,26.50
2018-08-28T14:37:46.822Z,26.00
2018-08-28T14:40:16.135Z,26.00
2018-08-28T14:42:45.584Z,26.80
2018-08-28T14:45:15.077Z,27.20
2018-08-28T14:47:44.641Z,27.50
2018-08-28T14:50:14.021Z,27.90
2018-08-28T14:52:43.483Z,28.00
2018-08-28T14:55:12.749Z,28.10
2018-08-28T14:57:42.040Z,27.80
2018-08-28T15:00:11.364Z,27.40
2018-08-28T15:02:41.053Z,27.00
2018-08-28T15:05:10.404Z,26.30
2018-08-28T15:07:39.911Z,26.50
2018-08-28T15:10:09.263Z,26.70
2018-08-28T15:12:38.766Z,26.40
2018-08-28T15:15:08.743Z,26.30
2018-08-28T15:17:38.326Z,25.90
2018-08-28T15:20:07.938Z,26.00
2018-08-28T15:22:39.191Z,27.00
2018-08-28T15:25:09.628Z,26.70
2018-08-28T15:27:38.964Z,26.70
2018-08-28T15:30:08.942Z,26.90
2018-08-28T15:32:38.252Z,28.40
2018-08-28T15:35:08.192Z,27.50
2018-08-28T15:37:37.481Z,26.70
2018-08-28T15:40:07.156Z,26.60
2018-08-28T15:42:36.448Z,26.40
2018-08-28T15:45:05.794Z,26.40
2018-08-28T15:47:35.191Z,26.40
2018-08-28T15:50:05.082Z,26.50
2018-08-28T15:52:34.392Z,26.80
2018-08-28T15:55:03.820Z,27.40
2018-08-28T15:57:33.141Z,27.30
2018-08-28T16:00:02.468Z,27.30
2018-08-28T16:02:31.888Z,27.30
2018-08-28T16:05:01.308Z,28.50
2018-08-28T16:07:31.091Z,28.80
2018-08-28T16:10:00.457Z,28.70
2018-08-28T16:12:29.950Z,28.50
2018-08-28T16:14:59.562Z,28.20
2018-08-28T16:17:29.164Z,28.40
2018-08-28T16:19:58.465Z,28.20
2018-08-28T16:22:39.180Z,27.90
2018-08-28T16:25:08.600Z,28.20
2018-08-28T16:27:38.199Z,28.00
2018-08-28T16:30:07.695Z,28.50
2018-08-28T16:32:37.358Z,28.70
2018-08-28T16:35:06.688Z,29.00
2018-08-28T16:37:36.265Z,28.70
2018-08-28T16:40:06.521Z,28.60
2018-08-28T16:42:36.842Z,28.80
2018-08-28T16:45:08.571Z,28.90
2018-08-28T16:47:38.151Z,29.00
2018-08-28T16:50:07.762Z,29.30
2018-08-28T16:52:37.556Z,29.70
2018-08-28T16:55:07.168Z,30.00
2018-08-28T16:57:36.812Z,30.40
2018-08-28T17:00:06.538Z,30.90
2018-08-28T17:02:36.550Z,31.50
2018-08-28T17:05:06.881Z,31.50
2018-08-28T17:07:36.585Z,31.70
2018-08-28T17:10:06.755Z,32.50
2018-08-28T17:12:36.829Z,33.80
2018-08-28T17:15:06.946Z,36.20
2018-08-28T17:17:36.785Z,36.90
2018-08-28T17:20:07.047Z,37.60
2018-08-28T17:22:36.661Z,38.80
2018-08-28T17:25:06.506Z,40.00
2018-08-28T17:27:36.152Z,41.40
2018-08-28T17:30:06.241Z,42.60
2018-08-28T17:32:35.891Z,43.80
2018-08-28T17:35:05.499Z,44.90
2018-08-28T17:37:34.564Z,45.80
2018-08-28T17:40:03.644Z,46.50
2018-08-28T17:42:32.689Z,47.10
2018-08-28T17:45:02.007Z,47.70
2018-08-28T17:47:31.073Z,48.40
2018-08-28T17:50:00.061Z,48.80
2018-08-28T17:52:29.100Z,49.30
2018-08-28T17:54:58.190Z,50.00
2018-08-28T17:57:27.252Z,50.80
2018-08-28T17:59:56.492Z,51.40
2018-08-28T18:02:25.710Z,52.10
2018-08-28T18:04:54.923Z,52.60
2018-08-28T18:07:24.002Z,53.20
2018-08-28T18:09:53.427Z,53.90
2018-08-28T18:12:22.726Z,54.50
2018-08-28T18:14:52.894Z,55.30
2018-08-28T18:17:22.641Z,56.00
2018-08-28T18:19:52.223Z,56.40
2018-08-28T18:22:21.335Z,56.90
2018-08-28T18:24:50.902Z,57.40
2018-08-28T18:27:20.449Z,58.20
2018-08-28T18:29:50.039Z,58.90
2018-08-28T18:32:19.045Z,59.50
2018-08-28T18:34:48.058Z,60.20
2018-08-28T18:37:19.477Z,60.60
2018-08-28T18:39:50.737Z,61.00
2018-08-28T18:42:20.329Z,61.60
2018-08-28T18:44:51.002Z,62.20
2018-08-28T18:47:20.446Z,62.80
2018-08-28T18:49:51.702Z,63.90
2018-08-28T18:52:21.736Z,64.70
2018-08-28T18:54:54.790Z,65.20
2018-08-28T18:57:25.287Z,66.00
2018-08-28T18:59:55.072Z,66.90
2018-08-28T19:02:26.940Z,67.40
2018-08-28T19:04:57.480Z,67.90
2018-08-28T19:07:26.807Z,68.90
2018-08-28T19:09:55.842Z,68.40
2018-08-28T19:12:25.408Z,68.90
2018-08-28T19:14:54.524Z,69.10
2018-08-28T19:17:23.655Z,69.20
2018-08-28T19:19:53.814Z,69.80
2018-08-28T19:22:23.544Z,69.90
2018-08-28T19:24:57.813Z,70.10
2018-08-28T19:27:29.625Z,70.40
2018-08-28T19:30:05.182Z,70.90
2018-08-28T19:32:40.538Z,71.00
2018-08-28T19:35:14.944Z,71.10
2018-08-28T19:40:29.099Z,71.50
2018-08-28T19:42:59.215Z,71.50
2018-08-28T19:45:32.922Z,71.40
2018-08-28T19:48:04.252Z,72.10
2018-08-28T19:50:34.840Z,72.00
2018-08-28T19:53:03.926Z,72.50
2018-08-28T19:55:32.998Z,72.50
2018-08-28T19:58:02.744Z,73.40
2018-08-28T20:00:31.987Z,73.30
2018-08-28T20:03:01.046Z,73.50
2018-08-28T20:05:30.150Z,74.00
2018-08-28T20:07:59.179Z,73.70
2018-08-28T20:10:28.187Z,73.10
2018-08-28T20:12:57.237Z,73.20
2018-08-28T20:15:26.277Z,74.00
2018-08-28T20:17:55.358Z,74.80
2018-08-28T20:20:24.502Z,74.90
2018-08-28T20:22:53.543Z,75.40
2018-08-28T20:25:22.611Z,75.60
2018-08-28T20:27:51.647Z,75.60
2018-08-28T20:30:20.680Z,75.20
2018-08-28T20:32:49.689Z,75.50
2018-08-28T20:35:18.718Z,75.70
2018-08-28T20:37:47.776Z,75.70
2018-08-28T20:40:16.821Z,76.10
2018-08-28T20:42:45.875Z,76.20
2018-08-28T20:45:15.001Z,76.00
2018-08-28T20:47:44.155Z,75.80
2018-08-28T20:50:13.286Z,76.30
2018-08-28T20:52:42.831Z,76.20
2018-08-28T20:55:12.636Z,76.40
2018-08-28T20:57:41.673Z,76.50
2018-08-28T21:00:11.006Z,77.00
2018-08-28T21:02:40.034Z,77.30
2018-08-28T21:05:09.112Z,77.40
2018-08-28T21:07:38.177Z,77.40
2018-08-28T21:10:07.552Z,78.20
2018-08-28T21:12:36.653Z,78.10
2018-08-28T21:15:05.910Z,78.60
2018-08-28T21:17:34.988Z,78.60
2018-08-28T21:20:04.478Z,79.00
2018-08-28T21:22:33.865Z,79.60
2018-08-28T21:25:03.240Z,79.80
2018-08-28T21:27:32.259Z,80.00
2018-08-28T21:30:01.308Z,80.00
2018-08-28T21:32:30.353Z,80.10
2018-08-28T21:34:59.538Z,80.30
2018-08-28T21:37:28.667Z,80.10
2018-08-28T21:39:57.700Z,80.10
2018-08-28T21:42:26.799Z,79.60
2018-08-28T21:44:56.058Z,79.90
2018-08-28T21:47:25.172Z,80.20
2018-08-28T21:49:54.601Z,80.20
2018-08-28T21:52:23.650Z,80.20
2018-08-28T21:54:52.773Z,80.30
2018-08-28T21:57:21.779Z,80.40
2018-08-28T21:59:51.314Z,80.70
2018-08-28T22:02:20.388Z,81.10
2018-08-28T22:04:49.427Z,81.00
2018-08-28T22:07:23.758Z,81.00
2018-08-28T22:09:52.784Z,81.40
2018-08-28T22:12:21.863Z,81.80
2018-08-28T22:14:50.939Z,82.20
2018-08-28T22:17:19.965Z,81.20
2018-08-28T22:19:49.006Z,82.10
2018-08-28T22:22:18.058Z,82.20
2018-08-28T22:24:47.116Z,82.10
2018-08-28T22:27:16.125Z,82.20
2018-08-28T22:29:45.530Z,82.10
2018-08-28T22:32:14.889Z,82.00
2018-08-28T22:34:43.928Z,82.40
2018-08-28T22:37:13.008Z,82.50
2018-08-28T22:39:42.313Z,82.20
2018-08-28T22:42:11.542Z,82.20
2018-08-28T22:44:40.591Z,82.60
2018-08-28T22:47:09.656Z,82.70
2018-08-28T22:49:38.729Z,83.00
2018-08-28T22:52:07.829Z,83.60
2018-08-28T22:54:37.217Z,83.80
2018-08-28T22:57:06.320Z,83.80
2018-08-28T22:59:35.403Z,83.90
2018-08-28T23:02:04.499Z,83.90
2018-08-28T23:04:33.561Z,83.90
2018-08-28T23:07:02.699Z,84.00
2018-08-28T23:09:31.762Z,83.20
2018-08-28T23:12:01.207Z,83.90
2018-08-28T23:14:30.257Z,84.30
2018-08-28T23:16:59.473Z,84.20
2018-08-28T23:19:28.499Z,84.00
2018-08-28T23:21:57.970Z,84.60
2018-08-28T23:24:26.983Z,85.10
2018-08-28T23:26:56.038Z,85.00
2018-08-28T23:29:25.037Z,85.30
2018-08-28T23:31:54.028Z,85.50
2018-08-28T23:34:23.071Z,85.70
2018-08-28T23:36:52.100Z,86.10
2018-08-28T23:39:21.091Z,86.10
2018-08-28T23:41:50.220Z,86.40
2018-08-28T23:44:19.351Z,86.80
2018-08-28T23:46:48.354Z,86.60
2018-08-28T23:49:17.441Z,87.50
2018-08-28T23:51:46.465Z,86.30
2018-08-28T23:54:15.532Z,87.00
2018-08-28T23:56:44.547Z,87.40
2018-08-28T23:59:13.602Z,87.80
